sensor_id;sensor_type;location;lat;lon;timestamp;P1;durP1;ratioP1;P2;durP2;ratioP2
21192;SDS011;10754;51.106;7.164;2022-08-02T00:01:29;2.42;;;1.60;;
21192;SDS011;10754;51.106;7.164;2022-08-02T00:03:54;1.95;;;1.33;;
21192;SDS011;10754;51.106;7.164;2022-08-02T00:06:20;1.52;;;1.33;;
21192;SDS011;10754;51.106;7.164;2022-08-02T00:08:45;2.80;;;1.25;;
21192;SDS011;10754;51.106;7.164;2022-08-02T00:11:11;1.27;;;1.17;;
21192;SDS011;10754;51.106;7.164;2022-08-02T00:13:36;4.43;;;1.38;;
21192;SDS011;10754;51.106;7.164;2022-08-02T00:16:02;1.33;;;1.20;;
21192;SDS011;10754;51.106;7.164;2022-08-02T00:18:28;3.05;;;1.42;;
21192;SDS011;10754;51.106;7.164;2022-08-02T00:20:53;1.40;;;1.20;;
21192;SDS011;10754;51.106;7.164;2022-08-02T00:23:19;1.90;;;1.30;;
21192;SDS011;10754;51.106;7.164;2022-08-02T00:25:44;2.50;;;1.38;;
21192;SDS011;10754;51.106;7.164;2022-08-02T00:28:10;2.13;;;1.40;;
21192;SDS011;10754;51.106;7.164;2022-08-02T00:30:36;1.70;;;1.30;;
21192;SDS011;10754;51.106;7.164;2022-08-02T00:33:02;2.47;;;1.60;;
21192;SDS011;10754;51.106;7.164;2022-08-02T00:35:29;1.73;;;1.30;;
21192;SDS011;10754;51.106;7.164;2022-08-02T00:37:55;3.28;;;1.63;;
21192;SDS011;10754;51.106;7.164;2022-08-02T00:40:21;3.20;;;1.35;;
21192;SDS011;10754;51.106;7.164;2022-08-02T00:43:07;1.30;;;1.20;;
21192;SDS011;10754;51.106;7.164;2022-08-02T00:45:36;1.92;;;1.50;;
21192;SDS011;10754;51.106;7.164;2022-08-02T00:48:03;1.85;;;1.45;;
21192;SDS011;10754;51.106;7.164;2022-08-02T00:50:30;1.92;;;1.45;;
21192;SDS011;10754;51.106;7.164;2022-08-02T00:52:56;1.98;;;1.48;;
21192;SDS011;10754;51.106;7.164;2022-08-02T00:55:22;1.92;;;1.30;;
21192;SDS011;10754;51.106;7.164;2022-08-02T00:57:47;2.53;;;1.50;;
21192;SDS011;10754;51.106;7.164;2022-08-02T01:00:13;2.17;;;1.67;;
21192;SDS011;10754;51.106;7.164;2022-08-02T01:02:39;2.95;;;1.55;;
21192;SDS011;10754;51.106;7.164;2022-08-02T01:05:05;2.75;;;1.60;;
21192;SDS011;10754;51.106;7.164;2022-08-02T01:07:31;1.90;;;1.80;;
21192;SDS011;10754;51.106;7.164;2022-08-02T01:09:57;2.67;;;1.85;;
21192;SDS011;10754;51.106;7.164;2022-08-02T01:12:24;2.00;;;1.60;;
21192;SDS011;10754;51.106;7.164;2022-08-02T01:14:50;3.03;;;1.85;;
21192;SDS011;10754;51.106;7.164;2022-08-02T01:19:56;1.75;;;1.60;;
21192;SDS011;10754;51.106;7.164;2022-08-02T01:25:19;1.70;;;1.60;;
21192;SDS011;10754;51.106;7.164;2022-08-02T01:31:28;3.42;;;1.90;;
21192;SDS011;10754;51.106;7.164;2022-08-02T01:33:58;3.10;;;1.90;;
21192;SDS011;10754;51.106;7.164;2022-08-02T01:36:31;4.15;;;2.00;;
21192;SDS011;10754;51.106;7.164;2022-08-02T01:39:02;2.00;;;1.70;;
21192;SDS011;10754;51.106;7.164;2022-08-02T01:41:29;2.10;;;1.65;;
21192;SDS011;10754;51.106;7.164;2022-08-02T01:43:57;2.53;;;1.65;;
21192;SDS011;10754;51.106;7.164;2022-08-02T01:46:25;3.25;;;1.50;;
21192;SDS011;10754;51.106;7.164;2022-08-02T01:48:53;3.00;;;1.65;;
21192;SDS011;10754;51.106;7.164;2022-08-02T01:51:21;1.98;;;1.77;;
21192;SDS011;10754;51.106;7.164;2022-08-02T01:54:09;2.80;;;1.70;;
21192;SDS011;10754;51.106;7.164;2022-08-02T01:56:36;3.13;;;1.88;;
21192;SDS011;10754;51.106;7.164;2022-08-02T01:59:04;3.72;;;1.88;;
21192;SDS011;10754;51.106;7.164;2022-08-02T02:01:32;2.55;;;1.88;;
21192;SDS011;10754;51.106;7.164;2022-08-02T02:04:02;1.65;;;1.33;;
21192;SDS011;10754;51.106;7.164;2022-08-02T02:06:28;2.33;;;1.60;;
21192;SDS011;10754;51.106;7.164;2022-08-02T02:08:55;4.22;;;2.00;;
21192;SDS011;10754;51.106;7.164;2022-08-02T02:11:21;1.95;;;1.60;;
21192;SDS011;10754;51.106;7.164;2022-08-02T02:13:47;1.83;;;1.67;;
21192;SDS011;10754;51.106;7.164;2022-08-02T02:16:13;3.10;;;1.80;;
21192;SDS011;10754;51.106;7.164;2022-08-02T02:18:40;2.28;;;1.67;;
21192;SDS011;10754;51.106;7.164;2022-08-02T02:21:08;3.63;;;1.92;;
21192;SDS011;10754;51.106;7.164;2022-08-02T02:23:34;2.85;;;1.70;;
21192;SDS011;10754;51.106;7.164;2022-08-02T02:26:00;2.95;;;1.67;;
21192;SDS011;10754;51.106;7.164;2022-08-02T02:28:29;3.60;;;1.50;;
21192;SDS011;10754;51.106;7.164;2022-08-02T02:30:58;2.05;;;1.55;;
21192;SDS011;10754;51.106;7.164;2022-08-02T02:33:34;1.98;;;1.60;;
21192;SDS011;10754;51.106;7.164;2022-08-02T02:36:04;2.67;;;1.50;;
21192;SDS011;10754;51.106;7.164;2022-08-02T02:38:31;3.38;;;1.77;;
21192;SDS011;10754;51.106;7.164;2022-08-02T02:41:02;2.92;;;1.55;;
21192;SDS011;10754;51.106;7.164;2022-08-02T02:43:31;2.40;;;1.80;;
21192;SDS011;10754;51.106;7.164;2022-08-02T02:45:58;1.75;;;1.65;;
21192;SDS011;10754;51.106;7.164;2022-08-02T02:48:27;3.80;;;1.77;;
21192;SDS011;10754;51.106;7.164;2022-08-02T02:50:53;2.13;;;1.60;;
21192;SDS011;10754;51.106;7.164;2022-08-02T02:53:20;1.58;;;1.48;;
21192;SDS011;10754;51.106;7.164;2022-08-02T02:55:46;2.30;;;1.52;;
21192;SDS011;10754;51.106;7.164;2022-08-02T02:58:13;3.50;;;1.48;;
21192;SDS011;10754;51.106;7.164;2022-08-02T03:00:39;7.32;;;1.77;;
21192;SDS011;10754;51.106;7.164;2022-08-02T03:03:24;1.75;;;1.50;;
21192;SDS011;10754;51.106;7.164;2022-08-02T03:05:49;1.73;;;1.60;;
21192;SDS011;10754;51.106;7.164;2022-08-02T03:08:15;1.58;;;1.33;;
21192;SDS011;10754;51.106;7.164;2022-08-02T03:10:43;3.03;;;1.60;;
21192;SDS011;10754;51.106;7.164;2022-08-02T03:13:10;4.40;;;2.20;;
21192;SDS011;10754;51.106;7.164;2022-08-02T03:15:36;2.22;;;1.95;;
21192;SDS011;10754;51.106;7.164;2022-08-02T03:18:03;3.50;;;1.90;;
21192;SDS011;10754;51.106;7.164;2022-08-02T03:20:31;2.60;;;1.60;;
21192;SDS011;10754;51.106;7.164;2022-08-02T03:22:57;2.63;;;1.48;;
21192;SDS011;10754;51.106;7.164;2022-08-02T03:25:22;2.70;;;1.60;;
21192;SDS011;10754;51.106;7.164;2022-08-02T03:27:48;2.92;;;1.73;;
21192;SDS011;10754;51.106;7.164;2022-08-02T03:30:13;1.98;;;1.60;;
21192;SDS011;10754;51.106;7.164;2022-08-02T03:32:40;1.83;;;1.63;;
21192;SDS011;10754;51.106;7.164;2022-08-02T03:35:09;1.83;;;1.63;;
21192;SDS011;10754;51.106;7.164;2022-08-02T03:37:37;2.15;;;1.65;;
21192;SDS011;10754;51.106;7.164;2022-08-02T03:40:05;2.88;;;2.00;;
21192;SDS011;10754;51.106;7.164;2022-08-02T03:42:34;2.80;;;1.90;;
21192;SDS011;10754;51.106;7.164;2022-08-02T03:45:00;3.50;;;2.15;;
21192;SDS011;10754;51.106;7.164;2022-08-02T03:47:27;2.08;;;1.88;;
21192;SDS011;10754;51.106;7.164;2022-08-02T03:49:54;2.00;;;1.90;;
21192;SDS011;10754;51.106;7.164;2022-08-02T03:52:20;2.70;;;1.95;;
21192;SDS011;10754;51.106;7.164;2022-08-02T03:54:46;3.05;;;2.00;;
21192;SDS011;10754;51.106;7.164;2022-08-02T03:57:12;3.30;;;2.17;;
21192;SDS011;10754;51.106;7.164;2022-08-02T03:59:39;3.30;;;2.03;;
21192;SDS011;10754;51.106;7.164;2022-08-02T04:02:05;2.70;;;1.73;;
21192;SDS011;10754;51.106;7.164;2022-08-02T04:04:31;2.08;;;1.85;;
21192;SDS011;10754;51.106;7.164;2022-08-02T04:06:56;2.25;;;2.00;;
21192;SDS011;10754;51.106;7.164;2022-08-02T04:09:22;2.15;;;1.98;;
21192;SDS011;10754;51.106;7.164;2022-08-02T04:11:47;2.85;;;1.88;;
21192;SDS011;10754;51.106;7.164;2022-08-02T04:14:13;2.08;;;1.70;;
21192;SDS011;10754;51.106;7.164;2022-08-02T04:16:55;2.38;;;2.17;;
21192;SDS011;10754;51.106;7.164;2022-08-02T04:19:33;2.65;;;2.03;;
21192;SDS011;10754;51.106;7.164;2022-08-02T04:22:11;5.18;;;2.58;;
21192;SDS011;10754;51.106;7.164;2022-08-02T04:24:42;3.67;;;2.00;;
21192;SDS011;10754;51.106;7.164;2022-08-02T04:27:12;2.50;;;1.80;;
21192;SDS011;10754;51.106;7.164;2022-08-02T04:29:39;1.80;;;1.70;;
21192;SDS011;10754;51.106;7.164;2022-08-02T04:32:06;3.33;;;2.35;;
21192;SDS011;10754;51.106;7.164;2022-08-02T04:34:32;2.15;;;1.98;;
21192;SDS011;10754;51.106;7.164;2022-08-02T04:36:58;2.45;;;2.20;;
21192;SDS011;10754;51.106;7.164;2022-08-02T04:39:24;2.50;;;2.25;;
21192;SDS011;10754;51.106;7.164;2022-08-02T04:41:51;2.45;;;2.03;;
21192;SDS011;10754;51.106;7.164;2022-08-02T04:44:16;2.97;;;2.03;;
21192;SDS011;10754;51.106;7.164;2022-08-02T04:46:42;1.83;;;1.70;;
21192;SDS011;10754;51.106;7.164;2022-08-02T04:49:09;2.33;;;2.13;;
21192;SDS011;10754;51.106;7.164;2022-08-02T04:51:35;3.80;;;3.50;;
21192;SDS011;10754;51.106;7.164;2022-08-02T04:54:06;3.85;;;3.55;;
21192;SDS011;10754;51.106;7.164;2022-08-02T04:56:32;4.07;;;3.78;;
21192;SDS011;10754;51.106;7.164;2022-08-02T04:58:58;6.10;;;4.35;;
21192;SDS011;10754;51.106;7.164;2022-08-02T05:01:24;4.55;;;4.15;;
21192;SDS011;10754;51.106;7.164;2022-08-02T05:03:49;5.78;;;4.70;;
21192;SDS011;10754;51.106;7.164;2022-08-02T05:06:15;5.05;;;4.53;;
21192;SDS011;10754;51.106;7.164;2022-08-02T05:08:43;5.32;;;4.55;;
21192;SDS011;10754;51.106;7.164;2022-08-02T05:11:09;5.13;;;4.43;;
21192;SDS011;10754;51.106;7.164;2022-08-02T05:13:35;5.20;;;4.70;;
21192;SDS011;10754;51.106;7.164;2022-08-02T05:16:00;4.25;;;3.95;;
21192;SDS011;10754;51.106;7.164;2022-08-02T05:18:28;4.40;;;4.03;;
21192;SDS011;10754;51.106;7.164;2022-08-02T05:20:54;5.97;;;4.57;;
21192;SDS011;10754;51.106;7.164;2022-08-02T05:23:19;4.80;;;4.50;;
21192;SDS011;10754;51.106;7.164;2022-08-02T05:25:45;5.22;;;4.68;;
21192;SDS011;10754;51.106;7.164;2022-08-02T05:28:10;4.70;;;4.30;;
21192;SDS011;10754;51.106;7.164;2022-08-02T05:30:36;4.72;;;4.32;;
21192;SDS011;10754;51.106;7.164;2022-08-02T05:33:02;5.20;;;4.80;;
21192;SDS011;10754;51.106;7.164;2022-08-02T05:35:28;5.05;;;4.65;;
21192;SDS011;10754;51.106;7.164;2022-08-02T05:37:54;5.90;;;5.00;;
21192;SDS011;10754;51.106;7.164;2022-08-02T05:40:19;5.90;;;4.90;;
21192;SDS011;10754;51.106;7.164;2022-08-02T05:42:45;5.13;;;4.55;;
21192;SDS011;10754;51.106;7.164;2022-08-02T05:45:10;5.45;;;4.93;;
21192;SDS011;10754;51.106;7.164;2022-08-02T05:47:36;6.55;;;5.38;;
21192;SDS011;10754;51.106;7.164;2022-08-02T05:50:02;4.57;;;4.18;;
21192;SDS011;10754;51.106;7.164;2022-08-02T05:52:42;4.78;;;4.32;;
21192;SDS011;10754;51.106;7.164;2022-08-02T05:55:21;5.68;;;5.13;;
21192;SDS011;10754;51.106;7.164;2022-08-02T05:58:05;5.25;;;4.85;;
21192;SDS011;10754;51.106;7.164;2022-08-02T06:00:38;5.65;;;5.15;;
21192;SDS011;10754;51.106;7.164;2022-08-02T06:03:19;5.18;;;4.70;;
21192;SDS011;10754;51.106;7.164;2022-08-02T06:05:51;4.90;;;4.40;;
21192;SDS011;10754;51.106;7.164;2022-08-02T06:08:24;4.80;;;4.40;;
21192;SDS011;10754;51.106;7.164;2022-08-02T06:10:56;4.90;;;4.40;;
21192;SDS011;10754;51.106;7.164;2022-08-02T06:13:25;5.45;;;4.78;;
21192;SDS011;10754;51.106;7.164;2022-08-02T06:15:52;6.07;;;4.53;;
21192;SDS011;10754;51.106;7.164;2022-08-02T06:18:19;5.68;;;5.07;;
21192;SDS011;10754;51.106;7.164;2022-08-02T06:20:47;6.00;;;4.40;;
21192;SDS011;10754;51.106;7.164;2022-08-02T06:23:14;5.22;;;4.38;;
21192;SDS011;10754;51.106;7.164;2022-08-02T06:25:41;5.05;;;3.85;;
21192;SDS011;10754;51.106;7.164;2022-08-02T06:28:11;4.82;;;3.70;;
21192;SDS011;10754;51.106;7.164;2022-08-02T06:30:37;4.88;;;3.85;;
21192;SDS011;10754;51.106;7.164;2022-08-02T06:33:04;5.85;;;3.90;;
21192;SDS011;10754;51.106;7.164;2022-08-02T06:35:33;4.85;;;3.88;;
21192;SDS011;10754;51.106;7.164;2022-08-02T06:38:08;5.38;;;3.80;;
21192;SDS011;10754;51.106;7.164;2022-08-02T06:40:42;4.22;;;3.80;;
21192;SDS011;10754;51.106;7.164;2022-08-02T06:43:17;4.93;;;4.05;;
21192;SDS011;10754;51.106;7.164;2022-08-02T06:45:53;4.28;;;3.88;;
21192;SDS011;10754;51.106;7.164;2022-08-02T06:48:19;4.15;;;3.78;;
21192;SDS011;10754;51.106;7.164;2022-08-02T06:50:44;6.15;;;4.25;;
21192;SDS011;10754;51.106;7.164;2022-08-02T06:53:10;4.35;;;3.92;;
21192;SDS011;10754;51.106;7.164;2022-08-02T06:55:36;4.65;;;3.80;;
21192;SDS011;10754;51.106;7.164;2022-08-02T06:58:02;5.93;;;3.63;;
21192;SDS011;10754;51.106;7.164;2022-08-02T07:00:28;4.82;;;3.47;;
21192;SDS011;10754;51.106;7.164;2022-08-02T07:02:54;4.55;;;3.40;;
21192;SDS011;10754;51.106;7.164;2022-08-02T07:05:19;4.85;;;4.13;;
21192;SDS011;10754;51.106;7.164;2022-08-02T07:07:45;4.88;;;3.30;;
21192;SDS011;10754;51.106;7.164;2022-08-02T07:10:12;4.75;;;3.00;;
21192;SDS011;10754;51.106;7.164;2022-08-02T07:12:38;6.03;;;3.40;;
21192;SDS011;10754;51.106;7.164;2022-08-02T07:15:04;5.93;;;3.03;;
21192;SDS011;10754;51.106;7.164;2022-08-02T07:17:31;3.85;;;3.45;;
21192;SDS011;10754;51.106;7.164;2022-08-02T07:19:57;4.40;;;3.72;;
21192;SDS011;10754;51.106;7.164;2022-08-02T07:22:23;3.75;;;3.42;;
21192;SDS011;10754;51.106;7.164;2022-08-02T07:24:50;5.10;;;3.40;;
21192;SDS011;10754;51.106;7.164;2022-08-02T07:27:16;3.42;;;3.10;;
21192;SDS011;10754;51.106;7.164;2022-08-02T07:29:42;6.95;;;3.42;;
21192;SDS011;10754;51.106;7.164;2022-08-02T07:32:07;3.90;;;3.45;;
21192;SDS011;10754;51.106;7.164;2022-08-02T07:34:33;7.35;;;3.53;;
21192;SDS011;10754;51.106;7.164;2022-08-02T07:36:58;4.28;;;3.42;;
21192;SDS011;10754;51.106;7.164;2022-08-02T07:39:24;7.18;;;3.78;;
21192;SDS011;10754;51.106;7.164;2022-08-02T07:41:49;3.35;;;2.65;;
21192;SDS011;10754;51.106;7.164;2022-08-02T07:44:16;3.78;;;2.63;;
21192;SDS011;10754;51.106;7.164;2022-08-02T07:46:43;4.22;;;2.80;;
21192;SDS011;10754;51.106;7.164;2022-08-02T07:49:09;5.13;;;2.80;;
21192;SDS011;10754;51.106;7.164;2022-08-02T07:51:34;4.60;;;2.40;;
21192;SDS011;10754;51.106;7.164;2022-08-02T07:54:00;5.57;;;2.20;;
21192;SDS011;10754;51.106;7.164;2022-08-02T07:56:26;4.07;;;2.30;;
21192;SDS011;10754;51.106;7.164;2022-08-02T07:58:51;2.80;;;1.80;;
21192;SDS011;10754;51.106;7.164;2022-08-02T08:01:18;2.75;;;1.73;;
21192;SDS011;10754;51.106;7.164;2022-08-02T08:03:43;2.13;;;1.60;;
21192;SDS011;10754;51.106;7.164;2022-08-02T08:06:09;3.72;;;1.70;;
21192;SDS011;10754;51.106;7.164;2022-08-02T08:08:35;2.88;;;1.80;;
21192;SDS011;10754;51.106;7.164;2022-08-02T08:11:01;4.97;;;1.75;;
21192;SDS011;10754;51.106;7.164;2022-08-02T08:13:27;3.17;;;1.42;;
21192;SDS011;10754;51.106;7.164;2022-08-02T08:15:52;3.35;;;1.80;;
21192;SDS011;10754;51.106;7.164;2022-08-02T08:18:18;2.70;;;1.45;;
21192;SDS011;10754;51.106;7.164;2022-08-02T08:20:44;4.07;;;1.90;;
21192;SDS011;10754;51.106;7.164;2022-08-02T08:23:10;2.13;;;1.55;;
21192;SDS011;10754;51.106;7.164;2022-08-02T08:25:35;2.50;;;1.48;;
21192;SDS011;10754;51.106;7.164;2022-08-02T08:28:01;5.97;;;1.70;;
21192;SDS011;10754;51.106;7.164;2022-08-02T08:30:26;3.30;;;1.55;;
21192;SDS011;10754;51.106;7.164;2022-08-02T08:32:52;2.15;;;1.55;;
21192;SDS011;10754;51.106;7.164;2022-08-02T08:35:17;1.85;;;1.10;;
21192;SDS011;10754;51.106;7.164;2022-08-02T08:37:43;3.63;;;1.20;;
21192;SDS011;10754;51.106;7.164;2022-08-02T08:40:09;2.33;;;1.20;;
21192;SDS011;10754;51.106;7.164;2022-08-02T08:42:36;2.00;;;1.17;;
21192;SDS011;10754;51.106;7.164;2022-08-02T08:45:03;2.92;;;1.35;;
21192;SDS011;10754;51.106;7.164;2022-08-02T08:47:33;2.17;;;1.10;;
21192;SDS011;10754;51.106;7.164;2022-08-02T08:50:02;2.95;;;1.13;;
21192;SDS011;10754;51.106;7.164;2022-08-02T08:52:32;1.45;;;1.13;;
21192;SDS011;10754;51.106;7.164;2022-08-02T08:55:00;3.13;;;1.23;;
21192;SDS011;10754;51.106;7.164;2022-08-02T08:57:28;2.00;;;1.13;;
21192;SDS011;10754;51.106;7.164;2022-08-02T08:59:55;2.42;;;1.42;;
21192;SDS011;10754;51.106;7.164;2022-08-02T09:02:21;2.30;;;1.52;;
21192;SDS011;10754;51.106;7.164;2022-08-02T09:04:47;2.42;;;1.50;;
21192;SDS011;10754;51.106;7.164;2022-08-02T09:07:13;3.80;;;1.65;;
21192;SDS011;10754;51.106;7.164;2022-08-02T09:09:38;2.55;;;1.60;;
21192;SDS011;10754;51.106;7.164;2022-08-02T09:12:16;2.13;;;1.35;;
21192;SDS011;10754;51.106;7.164;2022-08-02T09:14:45;2.15;;;1.15;;
21192;SDS011;10754;51.106;7.164;2022-08-02T09:17:11;2.17;;;1.58;;
21192;SDS011;10754;51.106;7.164;2022-08-02T09:19:37;3.72;;;1.40;;
21192;SDS011;10754;51.106;7.164;2022-08-02T09:22:04;2.30;;;1.35;;
21192;SDS011;10754;51.106;7.164;2022-08-02T09:27:10;2.47;;;1.63;;
21192;SDS011;10754;51.106;7.164;2022-08-02T09:29:37;1.98;;;1.45;;
21192;SDS011;10754;51.106;7.164;2022-08-02T09:32:02;4.20;;;1.50;;
21192;SDS011;10754;51.106;7.164;2022-08-02T09:34:42;2.38;;;1.50;;
21192;SDS011;10754;51.106;7.164;2022-08-02T09:37:20;2.45;;;1.30;;
21192;SDS011;10754;51.106;7.164;2022-08-02T09:39:54;1.60;;;1.40;;
21192;SDS011;10754;51.106;7.164;2022-08-02T09:42:21;1.92;;;1.33;;
21192;SDS011;10754;51.106;7.164;2022-08-02T09:44:53;2.13;;;1.30;;
21192;SDS011;10754;51.106;7.164;2022-08-02T09:47:20;3.20;;;1.80;;
21192;SDS011;10754;51.106;7.164;2022-08-02T09:49:47;1.73;;;1.30;;
21192;SDS011;10754;51.106;7.164;2022-08-02T09:52:13;3.22;;;1.42;;
21192;SDS011;10754;51.106;7.164;2022-08-02T09:54:39;1.70;;;1.48;;
21192;SDS011;10754;51.106;7.164;2022-08-02T09:57:05;3.05;;;1.40;;
21192;SDS011;10754;51.106;7.164;2022-08-02T09:59:31;1.98;;;1.38;;
21192;SDS011;10754;51.106;7.164;2022-08-02T10:01:58;2.67;;;1.50;;
21192;SDS011;10754;51.106;7.164;2022-08-02T10:04:24;1.98;;;1.65;;
21192;SDS011;10754;51.106;7.164;2022-08-02T10:06:53;2.58;;;1.70;;
21192;SDS011;10754;51.106;7.164;2022-08-02T10:09:20;1.92;;;1.48;;
21192;SDS011;10754;51.106;7.164;2022-08-02T10:11:46;2.10;;;1.58;;
21192;SDS011;10754;51.106;7.164;2022-08-02T10:14:12;2.83;;;1.55;;
21192;SDS011;10754;51.106;7.164;2022-08-02T10:16:39;1.58;;;1.40;;
21192;SDS011;10754;51.106;7.164;2022-08-02T10:19:06;2.17;;;1.60;;
21192;SDS011;10754;51.106;7.164;2022-08-02T10:24:05;6.07;;;2.05;;
21192;SDS011;10754;51.106;7.164;2022-08-02T10:26:40;2.53;;;1.45;;
21192;SDS011;10754;51.106;7.164;2022-08-02T10:29:08;3.28;;;1.83;;
21192;SDS011;10754;51.106;7.164;2022-08-02T10:31:40;4.20;;;1.75;;
21192;SDS011;10754;51.106;7.164;2022-08-02T10:34:15;4.57;;;1.50;;
21192;SDS011;10754;51.106;7.164;2022-08-02T10:36:45;3.33;;;1.25;;
21192;SDS011;10754;51.106;7.164;2022-08-02T10:39:12;1.90;;;1.40;;
21192;SDS011;10754;51.106;7.164;2022-08-02T10:41:42;1.75;;;1.45;;
21192;SDS011;10754;51.106;7.164;2022-08-02T10:44:19;3.03;;;1.55;;
21192;SDS011;10754;51.106;7.164;2022-08-02T10:47:17;2.05;;;1.27;;
21192;SDS011;10754;51.106;7.164;2022-08-02T10:49:54;2.10;;;1.50;;
21192;SDS011;10754;51.106;7.164;2022-08-02T10:52:30;7.28;;;1.50;;
21192;SDS011;10754;51.106;7.164;2022-08-02T10:54:59;2.78;;;1.40;;
21192;SDS011;10754;51.106;7.164;2022-08-02T10:57:28;1.45;;;1.13;;
21192;SDS011;10754;51.106;7.164;2022-08-02T11:02:37;3.83;;;1.90;;
21192;SDS011;10754;51.106;7.164;2022-08-02T11:05:12;2.72;;;1.70;;
21192;SDS011;10754;51.106;7.164;2022-08-02T11:10:48;3.90;;;1.40;;
21192;SDS011;10754;51.106;7.164;2022-08-02T11:13:02;2.25;;;1.33;;
21192;SDS011;10754;51.106;7.164;2022-08-02T11:15:28;3.35;;;1.45;;
21192;SDS011;10754;51.106;7.164;2022-08-02T11:17:55;2.10;;;1.45;;
21192;SDS011;10754;51.106;7.164;2022-08-02T11:20:23;3.58;;;1.25;;
21192;SDS011;10754;51.106;7.164;2022-08-02T11:22:51;3.15;;;1.23;;
21192;SDS011;10754;51.106;7.164;2022-08-02T11:27:49;2.03;;;1.23;;
21192;SDS011;10754;51.106;7.164;2022-08-02T11:30:19;2.83;;;1.23;;
21192;SDS011;10754;51.106;7.164;2022-08-02T11:32:46;2.08;;;1.00;;
21192;SDS011;10754;51.106;7.164;2022-08-02T11:35:13;3.20;;;0.90;;
21192;SDS011;10754;51.106;7.164;2022-08-02T11:37:39;1.52;;;1.13;;
21192;SDS011;10754;51.106;7.164;2022-08-02T11:40:10;2.00;;;1.20;;
21192;SDS011;10754;51.106;7.164;2022-08-02T11:42:41;1.92;;;1.33;;
21192;SDS011;10754;51.106;7.164;2022-08-02T11:45:12;2.55;;;1.08;;
21192;SDS011;10754;51.106;7.164;2022-08-02T11:50:11;3.38;;;1.30;;
21192;SDS011;10754;51.106;7.164;2022-08-02T11:52:37;2.60;;;1.10;;
21192;SDS011;10754;51.106;7.164;2022-08-02T11:55:03;3.00;;;1.30;;
21192;SDS011;10754;51.106;7.164;2022-08-02T11:57:30;2.33;;;1.45;;
21192;SDS011;10754;51.106;7.164;2022-08-02T11:59:56;6.45;;;1.30;;
21192;SDS011;10754;51.106;7.164;2022-08-02T12:02:25;1.75;;;0.90;;
21192;SDS011;10754;51.106;7.164;2022-08-02T12:07:17;2.65;;;1.30;;
21192;SDS011;10754;51.106;7.164;2022-08-02T12:09:49;2.15;;;1.20;;
21192;SDS011;10754;51.106;7.164;2022-08-02T12:12:14;3.03;;;1.30;;
21192;SDS011;10754;51.106;7.164;2022-08-02T12:14:41;1.20;;;1.00;;
21192;SDS011;10754;51.106;7.164;2022-08-02T12:17:08;1.92;;;1.38;;
21192;SDS011;10754;51.106;7.164;2022-08-02T12:20:06;3.75;;;1.50;;
21192;SDS011;10754;51.106;7.164;2022-08-02T12:22:32;3.05;;;1.35;;
21192;SDS011;10754;51.106;7.164;2022-08-02T12:25:13;4.00;;;1.20;;
21192;SDS011;10754;51.106;7.164;2022-08-02T12:27:43;2.85;;;1.17;;
21192;SDS011;10754;51.106;7.164;2022-08-02T12:30:10;1.05;;;0.77;;
21192;SDS011;10754;51.106;7.164;2022-08-02T12:32:40;3.45;;;1.40;;
21192;SDS011;10754;51.106;7.164;2022-08-02T12:35:07;3.63;;;1.20;;
21192;SDS011;10754;51.106;7.164;2022-08-02T12:37:40;2.72;;;1.10;;
21192;SDS011;10754;51.106;7.164;2022-08-02T12:40:24;2.92;;;1.27;;
21192;SDS011;10754;51.106;7.164;2022-08-02T12:43:00;3.38;;;1.25;;
21192;SDS011;10754;51.106;7.164;2022-08-02T12:45:27;2.42;;;1.25;;
21192;SDS011;10754;51.106;7.164;2022-08-02T12:47:55;1.98;;;1.30;;
21192;SDS011;10754;51.106;7.164;2022-08-02T12:50:26;2.08;;;0.90;;
21192;SDS011;10754;51.106;7.164;2022-08-02T12:55:31;3.08;;;1.20;;
21192;SDS011;10754;51.106;7.164;2022-08-02T12:57:58;1.90;;;1.10;;
21192;SDS011;10754;51.106;7.164;2022-08-02T13:00:26;1.50;;;1.40;;
21192;SDS011;10754;51.106;7.164;2022-08-02T13:02:54;2.75;;;1.30;;
21192;SDS011;10754;51.106;7.164;2022-08-02T13:05:19;1.45;;;1.20;;
21192;SDS011;10754;51.106;7.164;2022-08-02T13:07:45;2.60;;;1.15;;
21192;SDS011;10754;51.106;7.164;2022-08-02T13:10:11;1.77;;;1.20;;
21192;SDS011;10754;51.106;7.164;2022-08-02T13:12:36;3.92;;;1.20;;
21192;SDS011;10754;51.106;7.164;2022-08-02T13:15:03;2.63;;;1.02;;
21192;SDS011;10754;51.106;7.164;2022-08-02T13:17:33;2.60;;;1.20;;
21192;SDS011;10754;51.106;7.164;2022-08-02T13:19:59;5.10;;;1.33;;
21192;SDS011;10754;51.106;7.164;2022-08-02T13:22:24;1.52;;;1.00;;
21192;SDS011;10754;51.106;7.164;2022-08-02T13:24:50;1.35;;;1.17;;
21192;SDS011;10754;51.106;7.164;2022-08-02T13:27:16;5.43;;;1.50;;
21192;SDS011;10754;51.106;7.164;2022-08-02T13:29:42;1.63;;;0.93;;
21192;SDS011;10754;51.106;7.164;2022-08-02T13:32:07;0.75;;;0.73;;
21192;SDS011;10754;51.106;7.164;2022-08-02T13:34:33;3.15;;;0.93;;
21192;SDS011;10754;51.106;7.164;2022-08-02T13:36:59;1.75;;;1.10;;
21192;SDS011;10754;51.106;7.164;2022-08-02T13:39:25;1.55;;;0.93;;
21192;SDS011;10754;51.106;7.164;2022-08-02T13:41:51;2.38;;;1.25;;
21192;SDS011;10754;51.106;7.164;2022-08-02T13:44:16;3.97;;;1.35;;
21192;SDS011;10754;51.106;7.164;2022-08-02T13:46:42;4.78;;;1.50;;
21192;SDS011;10754;51.106;7.164;2022-08-02T13:49:08;3.17;;;1.20;;
21192;SDS011;10754;51.106;7.164;2022-08-02T13:51:33;3.60;;;1.05;;
21192;SDS011;10754;51.106;7.164;2022-08-02T13:53:58;2.45;;;1.20;;
21192;SDS011;10754;51.106;7.164;2022-08-02T13:56:24;3.70;;;1.25;;
21192;SDS011;10754;51.106;7.164;2022-08-02T13:58:51;1.25;;;1.10;;
21192;SDS011;10754;51.106;7.164;2022-08-02T14:01:16;1.67;;;1.15;;
21192;SDS011;10754;51.106;7.164;2022-08-02T14:03:42;4.50;;;1.15;;
21192;SDS011;10754;51.106;7.164;2022-08-02T14:06:07;1.08;;;0.75;;
21192;SDS011;10754;51.106;7.164;2022-08-02T14:08:34;1.35;;;0.82;;
21192;SDS011;10754;51.106;7.164;2022-08-02T14:11:00;3.55;;;1.40;;
21192;SDS011;10754;51.106;7.164;2022-08-02T14:13:26;3.75;;;1.10;;
21192;SDS011;10754;51.106;7.164;2022-08-02T14:15:51;1.38;;;0.82;;
21192;SDS011;10754;51.106;7.164;2022-08-02T14:18:17;3.08;;;1.10;;
21192;SDS011;10754;51.106;7.164;2022-08-02T14:20:43;4.80;;;1.40;;
21192;SDS011;10754;51.106;7.164;2022-08-02T14:23:09;2.47;;;1.13;;
21192;SDS011;10754;51.106;7.164;2022-08-02T14:25:35;2.80;;;1.00;;
21192;SDS011;10754;51.106;7.164;2022-08-02T14:28:01;1.35;;;0.82;;
21192;SDS011;10754;51.106;7.164;2022-08-02T14:30:27;1.30;;;0.90;;
21192;SDS011;10754;51.106;7.164;2022-08-02T14:32:52;2.22;;;1.00;;
21192;SDS011;10754;51.106;7.164;2022-08-02T14:35:18;1.80;;;1.00;;
21192;SDS011;10754;51.106;7.164;2022-08-02T14:37:43;2.10;;;1.08;;
21192;SDS011;10754;51.106;7.164;2022-08-02T14:40:09;2.35;;;1.15;;
21192;SDS011;10754;51.106;7.164;2022-08-02T14:42:35;2.83;;;1.15;;
21192;SDS011;10754;51.106;7.164;2022-08-02T14:45:00;2.05;;;1.00;;
21192;SDS011;10754;51.106;7.164;2022-08-02T14:47:26;4.90;;;1.13;;
21192;SDS011;10754;51.106;7.164;2022-08-02T14:49:51;3.13;;;1.10;;
21192;SDS011;10754;51.106;7.164;2022-08-02T14:52:17;3.95;;;1.20;;
21192;SDS011;10754;51.106;7.164;2022-08-02T14:54:43;3.28;;;1.15;;
21192;SDS011;10754;51.106;7.164;2022-08-02T14:57:09;3.20;;;1.20;;
21192;SDS011;10754;51.106;7.164;2022-08-02T14:59:35;1.83;;;0.90;;
21192;SDS011;10754;51.106;7.164;2022-08-02T15:02:00;2.28;;;1.10;;
21192;SDS011;10754;51.106;7.164;2022-08-02T15:04:26;3.13;;;1.40;;
21192;SDS011;10754;51.106;7.164;2022-08-02T15:06:52;1.48;;;1.00;;
21192;SDS011;10754;51.106;7.164;2022-08-02T15:09:18;2.33;;;1.20;;
21192;SDS011;10754;51.106;7.164;2022-08-02T15:11:44;2.15;;;1.20;;
21192;SDS011;10754;51.106;7.164;2022-08-02T15:14:10;1.52;;;1.02;;
21192;SDS011;10754;51.106;7.164;2022-08-02T15:16:35;1.73;;;1.10;;
21192;SDS011;10754;51.106;7.164;2022-08-02T15:19:02;1.10;;;1.00;;
21192;SDS011;10754;51.106;7.164;2022-08-02T15:21:31;1.88;;;0.93;;